Kezdőlap
METAR-TAF:

METAR-TAF

Repülőterek :

Lipcse, Németország

földrajzi szélesség: 51-25N, földrajzi hosszúság: 012-14E, magasság: 144 m

Jelenlegi meteorológiai megfigyelések

A jelentés 20 perccel ezelõtt készült, 10:20 UTC
Déli szél 4 kt, dél-délkeleti és délnyugati között változik
Hőmérséklet 18°C
Páratartalom 68%
Légköri nyomás 1015 hPa
Látótávolság 10 km, vagy több
felhőtlen 1500 m magasságban, és nincs gomolyfelhõ

METAR: EDDP 191020Z 19004KT 150V230 CAVOK 18/12 Q1015 NOSIG

Idő: 12:40 (10:40 UTC)

Előrejelzés

A jelentés 5 órával és 40 perccel ezelõtt készült, 05:00 UTC
Az előrejelzés 19-én 06 óra UTC és 20-én 06 óra UTC között érvényes
Déli szél 4 kt
Látótávolság 10 km, vagy több
felhőtlen 1500 m magasságban, és nincs gomolyfelhõ

TAF: EDDP 190500Z 1906/2006 17004KT CAVOK

Meteorológiai megfigyelések és előrejelzések több, mint 4000 repülőtéren (METAR és TAF jelentéseket).

A térképen piros és sárga pontok jelzik az elérhető meteorológiai állomásokat.

Mozgassa az egeret a pont fölött, hogy megjelenjen az állomás neve.

Azután kattintson az időjárási megfigyelések és előrejelzések megtekintéséhez.

A térkép megváltoztatása: kattintson a fekete keresztel jelölt zöld gombra ráközelítéshez, a vonallal jelölt zöld gombra távolításhoz, vagy a zöld nyilakra a szomszédos térképek eléréséhez.


METAR-TAF: